sensor_id;sensor_type;location;lat;lon;timestamp;P1;durP1;ratioP1;P2;durP2;ratioP2
56752;SDS011;42627;42.646;23.642;2023-06-10T00:01:24;8.65;;;3.38;;
56752;SDS011;42627;42.646;23.642;2023-06-10T00:03:25;5.90;;;3.30;;
56752;SDS011;42627;42.646;23.642;2023-06-10T00:05:26;7.32;;;3.20;;
56752;SDS011;42627;42.646;23.642;2023-06-10T00:07:30;6.75;;;3.20;;
56752;SDS011;42627;42.646;23.642;2023-06-10T00:09:31;7.80;;;3.50;;
56752;SDS011;42627;42.646;23.642;2023-06-10T00:11:32;4.90;;;3.00;;
56752;SDS011;42627;42.646;23.642;2023-06-10T00:13:33;9.10;;;3.47;;
56752;SDS011;42627;42.646;23.642;2023-06-10T00:15:34;6.47;;;3.70;;
56752;SDS011;42627;42.646;23.642;2023-06-10T00:17:35;6.07;;;3.72;;
56752;SDS011;42627;42.646;23.642;2023-06-10T00:19:39;7.10;;;3.55;;
56752;SDS011;42627;42.646;23.642;2023-06-10T00:21:41;9.80;;;3.88;;
56752;SDS011;42627;42.646;23.642;2023-06-10T00:23:42;7.75;;;3.72;;
56752;SDS011;42627;42.646;23.642;2023-06-10T00:25:43;7.82;;;3.60;;
56752;SDS011;42627;42.646;23.642;2023-06-10T00:27:44;7.57;;;3.53;;
56752;SDS011;42627;42.646;23.642;2023-06-10T00:29:45;7.63;;;3.80;;
56752;SDS011;42627;42.646;23.642;2023-06-10T00:31:46;6.35;;;3.80;;
56752;SDS011;42627;42.646;23.642;2023-06-10T00:33:47;6.53;;;3.50;;
56752;SDS011;42627;42.646;23.642;2023-06-10T00:35:49;5.60;;;3.78;;
56752;SDS011;42627;42.646;23.642;2023-06-10T00:37:50;7.38;;;4.18;;
56752;SDS011;42627;42.646;23.642;2023-06-10T00:39:51;7.95;;;4.10;;
56752;SDS011;42627;42.646;23.642;2023-06-10T00:41:52;6.32;;;3.63;;
56752;SDS011;42627;42.646;23.642;2023-06-10T00:43:53;6.28;;;3.80;;
56752;SDS011;42627;42.646;23.642;2023-06-10T00:45:54;7.40;;;4.07;;
56752;SDS011;42627;42.646;23.642;2023-06-10T00:47:55;6.25;;;3.75;;
56752;SDS011;42627;42.646;23.642;2023-06-10T00:49:56;5.20;;;3.58;;
56752;SDS011;42627;42.646;23.642;2023-06-10T00:51:57;5.93;;;3.30;;
56752;SDS011;42627;42.646;23.642;2023-06-10T00:53:59;6.63;;;3.70;;
56752;SDS011;42627;42.646;23.642;2023-06-10T00:56:00;7.05;;;3.35;;
56752;SDS011;42627;42.646;23.642;2023-06-10T00:58:01;5.47;;;2.75;;
56752;SDS011;42627;42.646;23.642;2023-06-10T01:00:04;8.68;;;4.10;;
56752;SDS011;42627;42.646;23.642;2023-06-10T01:02:07;6.15;;;3.70;;
56752;SDS011;42627;42.646;23.642;2023-06-10T01:04:09;8.60;;;3.95;;
56752;SDS011;42627;42.646;23.642;2023-06-10T01:06:20;6.43;;;3.65;;
56752;SDS011;42627;42.646;23.642;2023-06-10T01:08:35;7.03;;;3.78;;
56752;SDS011;42627;42.646;23.642;2023-06-10T01:10:42;7.82;;;3.78;;
56752;SDS011;42627;42.646;23.642;2023-06-10T01:14:48;5.00;;;3.60;;
56752;SDS011;42627;42.646;23.642;2023-06-10T01:16:51;4.97;;;3.40;;
56752;SDS011;42627;42.646;23.642;2023-06-10T01:18:53;7.30;;;3.70;;
56752;SDS011;42627;42.646;23.642;2023-06-10T01:20:54;6.13;;;3.53;;
56752;SDS011;42627;42.646;23.642;2023-06-10T01:22:56;6.00;;;3.78;;
56752;SDS011;42627;42.646;23.642;2023-06-10T01:24:58;6.00;;;3.60;;
56752;SDS011;42627;42.646;23.642;2023-06-10T01:27:00;7.03;;;3.75;;
56752;SDS011;42627;42.646;23.642;2023-06-10T01:29:11;6.80;;;3.78;;
56752;SDS011;42627;42.646;23.642;2023-06-10T01:33:25;8.25;;;4.35;;
56752;SDS011;42627;42.646;23.642;2023-06-10T01:35:28;6.10;;;3.80;;
56752;SDS011;42627;42.646;23.642;2023-06-10T01:37:30;8.98;;;3.85;;
56752;SDS011;42627;42.646;23.642;2023-06-10T01:39:32;11.35;;;4.75;;
56752;SDS011;42627;42.646;23.642;2023-06-10T01:41:34;6.38;;;4.00;;
56752;SDS011;42627;42.646;23.642;2023-06-10T01:43:37;10.40;;;3.97;;
56752;SDS011;42627;42.646;23.642;2023-06-10T01:45:38;8.15;;;4.20;;
56752;SDS011;42627;42.646;23.642;2023-06-10T01:47:39;7.28;;;4.40;;
56752;SDS011;42627;42.646;23.642;2023-06-10T01:49:40;8.80;;;4.18;;
56752;SDS011;42627;42.646;23.642;2023-06-10T01:51:41;7.55;;;4.10;;
56752;SDS011;42627;42.646;23.642;2023-06-10T01:53:42;9.02;;;4.25;;
56752;SDS011;42627;42.646;23.642;2023-06-10T01:55:43;6.40;;;4.03;;
56752;SDS011;42627;42.646;23.642;2023-06-10T01:57:44;8.52;;;4.00;;
56752;SDS011;42627;42.646;23.642;2023-06-10T01:59:45;6.70;;;4.07;;
56752;SDS011;42627;42.646;23.642;2023-06-10T02:01:46;10.73;;;4.28;;
56752;SDS011;42627;42.646;23.642;2023-06-10T02:03:47;7.40;;;3.60;;
56752;SDS011;42627;42.646;23.642;2023-06-10T02:05:48;6.18;;;3.80;;
56752;SDS011;42627;42.646;23.642;2023-06-10T02:07:49;8.48;;;3.85;;
56752;SDS011;42627;42.646;23.642;2023-06-10T02:09:51;9.60;;;4.07;;
56752;SDS011;42627;42.646;23.642;2023-06-10T02:11:52;7.32;;;4.40;;
56752;SDS011;42627;42.646;23.642;2023-06-10T02:13:53;8.80;;;3.60;;
56752;SDS011;42627;42.646;23.642;2023-06-10T02:15:54;7.63;;;4.38;;
56752;SDS011;42627;42.646;23.642;2023-06-10T02:17:55;6.20;;;3.50;;
56752;SDS011;42627;42.646;23.642;2023-06-10T02:19:56;6.20;;;3.88;;
56752;SDS011;42627;42.646;23.642;2023-06-10T02:21:58;4.90;;;3.22;;
56752;SDS011;42627;42.646;23.642;2023-06-10T02:23:59;7.28;;;3.88;;
56752;SDS011;42627;42.646;23.642;2023-06-10T02:26:01;6.78;;;3.95;;
56752;SDS011;42627;42.646;23.642;2023-06-10T02:28:02;7.35;;;3.70;;
56752;SDS011;42627;42.646;23.642;2023-06-10T02:30:03;5.63;;;3.70;;
56752;SDS011;42627;42.646;23.642;2023-06-10T02:32:04;9.23;;;3.85;;
56752;SDS011;42627;42.646;23.642;2023-06-10T02:34:06;7.00;;;3.67;;
56752;SDS011;42627;42.646;23.642;2023-06-10T02:36:07;6.40;;;3.92;;
56752;SDS011;42627;42.646;23.642;2023-06-10T02:38:08;7.97;;;4.05;;
56752;SDS011;42627;42.646;23.642;2023-06-10T02:40:09;4.65;;;3.30;;
56752;SDS011;42627;42.646;23.642;2023-06-10T02:42:10;8.98;;;3.78;;
56752;SDS011;42627;42.646;23.642;2023-06-10T02:44:11;7.63;;;3.88;;
56752;SDS011;42627;42.646;23.642;2023-06-10T02:46:12;6.28;;;3.55;;
56752;SDS011;42627;42.646;23.642;2023-06-10T02:48:13;6.75;;;3.65;;
56752;SDS011;42627;42.646;23.642;2023-06-10T02:50:14;6.13;;;3.53;;
56752;SDS011;42627;42.646;23.642;2023-06-10T02:52:16;10.20;;;4.18;;
56752;SDS011;42627;42.646;23.642;2023-06-10T02:54:17;5.40;;;3.58;;
56752;SDS011;42627;42.646;23.642;2023-06-10T02:56:18;6.75;;;4.20;;
56752;SDS011;42627;42.646;23.642;2023-06-10T02:58:20;5.47;;;3.45;;
56752;SDS011;42627;42.646;23.642;2023-06-10T03:00:21;6.35;;;3.63;;
56752;SDS011;42627;42.646;23.642;2023-06-10T03:02:22;7.50;;;3.80;;
56752;SDS011;42627;42.646;23.642;2023-06-10T03:04:28;6.40;;;3.72;;
56752;SDS011;42627;42.646;23.642;2023-06-10T03:06:30;8.82;;;3.92;;
56752;SDS011;42627;42.646;23.642;2023-06-10T03:08:33;5.80;;;3.60;;
56752;SDS011;42627;42.646;23.642;2023-06-10T03:10:34;6.55;;;3.50;;
56752;SDS011;42627;42.646;23.642;2023-06-10T03:12:35;6.70;;;3.88;;
56752;SDS011;42627;42.646;23.642;2023-06-10T03:14:36;6.00;;;3.47;;
56752;SDS011;42627;42.646;23.642;2023-06-10T03:16:38;8.43;;;3.80;;
56752;SDS011;42627;42.646;23.642;2023-06-10T03:18:43;6.57;;;3.85;;
56752;SDS011;42627;42.646;23.642;2023-06-10T03:20:44;6.68;;;3.53;;
56752;SDS011;42627;42.646;23.642;2023-06-10T03:22:45;8.55;;;4.15;;
56752;SDS011;42627;42.646;23.642;2023-06-10T03:24:46;7.18;;;3.83;;
56752;SDS011;42627;42.646;23.642;2023-06-10T03:26:50;6.25;;;3.83;;
56752;SDS011;42627;42.646;23.642;2023-06-10T03:28:51;9.50;;;4.00;;
56752;SDS011;42627;42.646;23.642;2023-06-10T03:30:52;7.25;;;3.78;;
56752;SDS011;42627;42.646;23.642;2023-06-10T03:32:53;7.05;;;3.80;;
56752;SDS011;42627;42.646;23.642;2023-06-10T03:34:54;9.52;;;4.45;;
56752;SDS011;42627;42.646;23.642;2023-06-10T03:36:57;7.07;;;4.40;;
56752;SDS011;42627;42.646;23.642;2023-06-10T03:38:58;6.50;;;3.92;;
56752;SDS011;42627;42.646;23.642;2023-06-10T03:40:59;6.88;;;4.05;;
56752;SDS011;42627;42.646;23.642;2023-06-10T03:43:00;6.82;;;3.60;;
56752;SDS011;42627;42.646;23.642;2023-06-10T03:45:02;7.32;;;4.03;;
56752;SDS011;42627;42.646;23.642;2023-06-10T03:47:04;6.88;;;3.95;;
56752;SDS011;42627;42.646;23.642;2023-06-10T03:49:05;6.60;;;3.90;;
56752;SDS011;42627;42.646;23.642;2023-06-10T03:51:06;5.90;;;3.40;;
56752;SDS011;42627;42.646;23.642;2023-06-10T03:53:07;6.13;;;3.20;;
56752;SDS011;42627;42.646;23.642;2023-06-10T03:55:08;6.63;;;3.75;;
56752;SDS011;42627;42.646;23.642;2023-06-10T03:57:11;7.97;;;3.78;;
56752;SDS011;42627;42.646;23.642;2023-06-10T03:59:12;6.82;;;3.42;;
56752;SDS011;42627;42.646;23.642;2023-06-10T04:01:13;6.72;;;3.67;;
56752;SDS011;42627;42.646;23.642;2023-06-10T04:03:14;6.90;;;3.97;;
56752;SDS011;42627;42.646;23.642;2023-06-10T04:05:15;8.52;;;4.38;;
56752;SDS011;42627;42.646;23.642;2023-06-10T04:07:17;7.35;;;3.40;;
56752;SDS011;42627;42.646;23.642;2023-06-10T04:09:35;5.80;;;3.47;;
56752;SDS011;42627;42.646;23.642;2023-06-10T04:11:36;7.28;;;3.65;;
56752;SDS011;42627;42.646;23.642;2023-06-10T04:13:37;6.35;;;3.88;;
56752;SDS011;42627;42.646;23.642;2023-06-10T04:15:38;6.82;;;4.40;;
56752;SDS011;42627;42.646;23.642;2023-06-10T04:17:40;9.32;;;4.40;;
56752;SDS011;42627;42.646;23.642;2023-06-10T04:19:57;8.57;;;3.97;;
56752;SDS011;42627;42.646;23.642;2023-06-10T04:22:00;6.15;;;4.00;;
56752;SDS011;42627;42.646;23.642;2023-06-10T04:24:02;8.50;;;3.70;;
56752;SDS011;42627;42.646;23.642;2023-06-10T04:26:03;9.68;;;4.25;;
56752;SDS011;42627;42.646;23.642;2023-06-10T04:28:05;6.47;;;4.10;;
56752;SDS011;42627;42.646;23.642;2023-06-10T04:30:06;7.22;;;4.38;;
56752;SDS011;42627;42.646;23.642;2023-06-10T04:32:08;7.80;;;4.28;;
56752;SDS011;42627;42.646;23.642;2023-06-10T04:34:09;8.80;;;4.38;;
56752;SDS011;42627;42.646;23.642;2023-06-10T04:36:10;6.75;;;4.07;;
56752;SDS011;42627;42.646;23.642;2023-06-10T04:38:11;6.13;;;4.10;;
56752;SDS011;42627;42.646;23.642;2023-06-10T04:40:12;8.27;;;4.60;;
56752;SDS011;42627;42.646;23.642;2023-06-10T04:42:15;8.05;;;4.47;;
56752;SDS011;42627;42.646;23.642;2023-06-10T04:44:16;7.93;;;4.60;;
56752;SDS011;42627;42.646;23.642;2023-06-10T04:46:18;8.07;;;4.68;;
56752;SDS011;42627;42.646;23.642;2023-06-10T04:48:19;6.50;;;4.38;;
56752;SDS011;42627;42.646;23.642;2023-06-10T04:50:20;6.93;;;4.88;;
56752;SDS011;42627;42.646;23.642;2023-06-10T04:52:21;7.32;;;4.60;;
56752;SDS011;42627;42.646;23.642;2023-06-10T04:54:22;9.15;;;4.68;;
56752;SDS011;42627;42.646;23.642;2023-06-10T04:56:23;8.32;;;4.47;;
56752;SDS011;42627;42.646;23.642;2023-06-10T04:58:24;8.00;;;4.63;;
56752;SDS011;42627;42.646;23.642;2023-06-10T05:00:25;8.68;;;5.30;;
56752;SDS011;42627;42.646;23.642;2023-06-10T05:02:26;8.57;;;4.22;;
56752;SDS011;42627;42.646;23.642;2023-06-10T05:04:27;9.50;;;5.13;;
56752;SDS011;42627;42.646;23.642;2023-06-10T05:06:29;10.57;;;4.70;;
56752;SDS011;42627;42.646;23.642;2023-06-10T05:08:30;8.02;;;4.30;;
56752;SDS011;42627;42.646;23.642;2023-06-10T05:10:31;8.05;;;5.07;;
56752;SDS011;42627;42.646;23.642;2023-06-10T05:12:34;9.65;;;4.75;;
56752;SDS011;42627;42.646;23.642;2023-06-10T05:14:35;9.45;;;5.10;;
56752;SDS011;42627;42.646;23.642;2023-06-10T05:16:36;9.07;;;5.10;;
56752;SDS011;42627;42.646;23.642;2023-06-10T05:18:37;8.18;;;5.10;;
56752;SDS011;42627;42.646;23.642;2023-06-10T05:20:38;9.77;;;5.32;;
56752;SDS011;42627;42.646;23.642;2023-06-10T05:22:39;6.45;;;4.30;;
56752;SDS011;42627;42.646;23.642;2023-06-10T05:24:40;8.98;;;4.95;;
56752;SDS011;42627;42.646;23.642;2023-06-10T05:26:41;7.90;;;5.10;;
56752;SDS011;42627;42.646;23.642;2023-06-10T05:28:42;10.40;;;5.55;;
56752;SDS011;42627;42.646;23.642;2023-06-10T05:30:43;7.78;;;4.90;;
56752;SDS011;42627;42.646;23.642;2023-06-10T05:32:45;9.63;;;4.97;;
56752;SDS011;42627;42.646;23.642;2023-06-10T05:34:46;8.85;;;5.03;;
56752;SDS011;42627;42.646;23.642;2023-06-10T05:36:47;9.18;;;4.93;;
56752;SDS011;42627;42.646;23.642;2023-06-10T05:38:48;10.98;;;4.95;;
56752;SDS011;42627;42.646;23.642;2023-06-10T05:40:49;10.45;;;5.95;;
56752;SDS011;42627;42.646;23.642;2023-06-10T05:42:50;9.43;;;5.88;;
56752;SDS011;42627;42.646;23.642;2023-06-10T05:44:51;8.88;;;5.13;;
56752;SDS011;42627;42.646;23.642;2023-06-10T05:46:52;9.07;;;5.45;;
56752;SDS011;42627;42.646;23.642;2023-06-10T05:48:53;8.63;;;5.18;;
56752;SDS011;42627;42.646;23.642;2023-06-10T05:50:54;10.63;;;5.63;;
56752;SDS011;42627;42.646;23.642;2023-06-10T05:52:55;9.95;;;5.43;;
56752;SDS011;42627;42.646;23.642;2023-06-10T05:54:56;10.80;;;5.45;;
56752;SDS011;42627;42.646;23.642;2023-06-10T05:56:59;13.05;;;6.47;;
56752;SDS011;42627;42.646;23.642;2023-06-10T05:59:00;9.73;;;6.35;;
56752;SDS011;42627;42.646;23.642;2023-06-10T06:01:01;10.07;;;6.22;;
56752;SDS011;42627;42.646;23.642;2023-06-10T06:03:02;10.35;;;6.07;;
56752;SDS011;42627;42.646;23.642;2023-06-10T06:05:03;12.32;;;6.88;;
56752;SDS011;42627;42.646;23.642;2023-06-10T06:07:05;11.57;;;6.32;;
56752;SDS011;42627;42.646;23.642;2023-06-10T06:09:06;11.82;;;6.75;;
56752;SDS011;42627;42.646;23.642;2023-06-10T06:11:07;10.73;;;6.47;;
56752;SDS011;42627;42.646;23.642;2023-06-10T06:13:08;47.85;;;13.07;;
56752;SDS011;42627;42.646;23.642;2023-06-10T06:15:10;70.45;;;15.27;;
56752;SDS011;42627;42.646;23.642;2023-06-10T06:17:11;41.10;;;10.25;;
56752;SDS011;42627;42.646;23.642;2023-06-10T06:19:12;20.08;;;8.60;;
56752;SDS011;42627;42.646;23.642;2023-06-10T06:21:13;14.50;;;7.78;;
56752;SDS011;42627;42.646;23.642;2023-06-10T06:23:15;12.05;;;6.90;;
56752;SDS011;42627;42.646;23.642;2023-06-10T06:25:16;23.88;;;13.75;;
56752;SDS011;42627;42.646;23.642;2023-06-10T06:27:17;33.42;;;10.02;;
56752;SDS011;42627;42.646;23.642;2023-06-10T06:29:18;45.50;;;11.35;;
56752;SDS011;42627;42.646;23.642;2023-06-10T06:31:19;13.65;;;7.05;;
56752;SDS011;42627;42.646;23.642;2023-06-10T06:33:20;16.17;;;7.70;;
56752;SDS011;42627;42.646;23.642;2023-06-10T06:35:21;35.40;;;10.60;;
56752;SDS011;42627;42.646;23.642;2023-06-10T06:37:22;154.23;;;29.33;;
56752;SDS011;42627;42.646;23.642;2023-06-10T06:39:26;17.10;;;8.35;;
56752;SDS011;42627;42.646;23.642;2023-06-10T06:41:27;12.18;;;7.00;;
56752;SDS011;42627;42.646;23.642;2023-06-10T06:43:29;10.75;;;6.45;;
56752;SDS011;42627;42.646;23.642;2023-06-10T06:45:33;14.20;;;7.53;;
56752;SDS011;42627;42.646;23.642;2023-06-10T06:47:34;13.07;;;7.47;;
56752;SDS011;42627;42.646;23.642;2023-06-10T06:49:35;70.97;;;21.48;;
56752;SDS011;42627;42.646;23.642;2023-06-10T06:51:36;60.50;;;17.83;;
56752;SDS011;42627;42.646;23.642;2023-06-10T06:53:37;14.50;;;7.03;;
56752;SDS011;42627;42.646;23.642;2023-06-10T06:55:44;11.90;;;5.90;;
56752;SDS011;42627;42.646;23.642;2023-06-10T06:57:45;12.20;;;7.25;;
56752;SDS011;42627;42.646;23.642;2023-06-10T06:59:46;34.67;;;9.38;;
56752;SDS011;42627;42.646;23.642;2023-06-10T07:01:47;30.55;;;9.85;;
56752;SDS011;42627;42.646;23.642;2023-06-10T07:03:48;16.33;;;7.82;;
56752;SDS011;42627;42.646;23.642;2023-06-10T07:05:49;16.95;;;8.25;;
56752;SDS011;42627;42.646;23.642;2023-06-10T07:07:50;13.32;;;6.88;;
56752;SDS011;42627;42.646;23.642;2023-06-10T07:09:54;13.82;;;7.78;;
56752;SDS011;42627;42.646;23.642;2023-06-10T07:11:55;13.25;;;7.32;;
56752;SDS011;42627;42.646;23.642;2023-06-10T07:13:56;37.45;;;10.07;;
56752;SDS011;42627;42.646;23.642;2023-06-10T07:15:57;37.83;;;10.93;;
56752;SDS011;42627;42.646;23.642;2023-06-10T07:17:59;18.40;;;7.78;;
56752;SDS011;42627;42.646;23.642;2023-06-10T07:20:00;24.73;;;10.20;;
56752;SDS011;42627;42.646;23.642;2023-06-10T07:22:01;42.85;;;12.05;;
56752;SDS011;42627;42.646;23.642;2023-06-10T07:24:02;23.05;;;9.25;;
56752;SDS011;42627;42.646;23.642;2023-06-10T07:26:03;42.55;;;12.10;;
56752;SDS011;42627;42.646;23.642;2023-06-10T07:28:04;70.00;;;14.75;;
56752;SDS011;42627;42.646;23.642;2023-06-10T07:30:05;15.95;;;7.53;;
56752;SDS011;42627;42.646;23.642;2023-06-10T07:32:08;14.60;;;7.43;;
56752;SDS011;42627;42.646;23.642;2023-06-10T07:34:09;12.73;;;7.47;;
56752;SDS011;42627;42.646;23.642;2023-06-10T07:36:10;16.67;;;8.25;;
56752;SDS011;42627;42.646;23.642;2023-06-10T07:38:11;10.82;;;6.70;;
56752;SDS011;42627;42.646;23.642;2023-06-10T07:40:12;12.00;;;7.20;;
56752;SDS011;42627;42.646;23.642;2023-06-10T07:42:13;20.85;;;9.20;;
56752;SDS011;42627;42.646;23.642;2023-06-10T07:44:15;21.95;;;8.90;;
56752;SDS011;42627;42.646;23.642;2023-06-10T07:46:16;27.73;;;8.90;;
56752;SDS011;42627;42.646;23.642;2023-06-10T07:48:17;38.45;;;11.52;;
56752;SDS011;42627;42.646;23.642;2023-06-10T07:50:18;13.48;;;7.22;;
56752;SDS011;42627;42.646;23.642;2023-06-10T07:52:19;11.20;;;6.82;;
56752;SDS011;42627;42.646;23.642;2023-06-10T07:54:20;13.50;;;7.35;;
56752;SDS011;42627;42.646;23.642;2023-06-10T07:56:21;11.20;;;6.32;;
56752;SDS011;42627;42.646;23.642;2023-06-10T07:58:22;15.95;;;6.82;;
56752;SDS011;42627;42.646;23.642;2023-06-10T08:00:23;13.90;;;8.15;;
56752;SDS011;42627;42.646;23.642;2023-06-10T08:02:24;10.48;;;6.50;;
56752;SDS011;42627;42.646;23.642;2023-06-10T08:04:25;12.65;;;6.60;;
56752;SDS011;42627;42.646;23.642;2023-06-10T08:06:26;11.57;;;6.80;;
56752;SDS011;42627;42.646;23.642;2023-06-10T08:08:27;13.80;;;6.63;;
56752;SDS011;42627;42.646;23.642;2023-06-10T08:10:29;14.32;;;6.78;;
56752;SDS011;42627;42.646;23.642;2023-06-10T08:12:30;10.77;;;7.00;;
56752;SDS011;42627;42.646;23.642;2023-06-10T08:14:31;11.15;;;6.32;;
56752;SDS011;42627;42.646;23.642;2023-06-10T08:16:32;10.98;;;6.13;;
56752;SDS011;42627;42.646;23.642;2023-06-10T08:18:33;15.50;;;7.50;;
56752;SDS011;42627;42.646;23.642;2023-06-10T08:20:34;12.52;;;6.63;;
56752;SDS011;42627;42.646;23.642;2023-06-10T08:22:35;10.75;;;6.30;;
56752;SDS011;42627;42.646;23.642;2023-06-10T08:24:36;12.40;;;7.78;;
56752;SDS011;42627;42.646;23.642;2023-06-10T08:26:37;10.15;;;6.38;;
56752;SDS011;42627;42.646;23.642;2023-06-10T08:28:38;13.43;;;6.53;;
56752;SDS011;42627;42.646;23.642;2023-06-10T08:30:39;11.10;;;6.85;;
56752;SDS011;42627;42.646;23.642;2023-06-10T08:32:41;11.93;;;7.00;;
56752;SDS011;42627;42.646;23.642;2023-06-10T08:34:42;11.20;;;6.68;;
56752;SDS011;42627;42.646;23.642;2023-06-10T08:36:43;11.55;;;6.57;;
56752;SDS011;42627;42.646;23.642;2023-06-10T08:38:45;11.95;;;7.40;;
56752;SDS011;42627;42.646;23.642;2023-06-10T08:40:46;11.93;;;8.25;;
56752;SDS011;42627;42.646;23.642;2023-06-10T08:44:48;13.52;;;7.47;;
56752;SDS011;42627;42.646;23.642;2023-06-10T08:46:51;14.55;;;7.13;;
56752;SDS011;42627;42.646;23.642;2023-06-10T08:48:53;12.15;;;7.65;;
56752;SDS011;42627;42.646;23.642;2023-06-10T08:50:56;30.98;;;10.50;;
56752;SDS011;42627;42.646;23.642;2023-06-10T08:52:57;42.83;;;11.40;;
56752;SDS011;42627;42.646;23.642;2023-06-10T08:54:59;21.33;;;9.15;;
56752;SDS011;42627;42.646;23.642;2023-06-10T08:57:01;19.77;;;8.25;;
56752;SDS011;42627;42.646;23.642;2023-06-10T08:59:05;13.25;;;6.47;;
56752;SDS011;42627;42.646;23.642;2023-06-10T09:01:07;10.95;;;7.18;;
56752;SDS011;42627;42.646;23.642;2023-06-10T09:03:09;9.77;;;5.47;;
56752;SDS011;42627;42.646;23.642;2023-06-10T09:05:10;8.65;;;3.92;;
56752;SDS011;42627;42.646;23.642;2023-06-10T09:07:11;10.00;;;5.25;;
56752;SDS011;42627;42.646;23.642;2023-06-10T09:09:14;8.13;;;4.38;;
56752;SDS011;42627;42.646;23.642;2023-06-10T09:11:15;6.15;;;3.13;;
56752;SDS011;42627;42.646;23.642;2023-06-10T09:13:16;5.78;;;3.60;;
56752;SDS011;42627;42.646;23.642;2023-06-10T09:15:18;8.07;;;4.35;;
56752;SDS011;42627;42.646;23.642;2023-06-10T09:17:19;9.77;;;4.05;;
56752;SDS011;42627;42.646;23.642;2023-06-10T09:19:21;7.28;;;2.75;;
56752;SDS011;42627;42.646;23.642;2023-06-10T09:21:25;6.13;;;2.83;;
56752;SDS011;42627;42.646;23.642;2023-06-10T09:23:26;5.43;;;3.17;;
56752;SDS011;42627;42.646;23.642;2023-06-10T09:25:34;5.45;;;2.53;;
56752;SDS011;42627;42.646;23.642;2023-06-10T09:27:49;3.85;;;2.30;;
56752;SDS011;42627;42.646;23.642;2023-06-10T09:29:51;4.18;;;2.20;;
56752;SDS011;42627;42.646;23.642;2023-06-10T09:31:53;6.35;;;2.88;;
56752;SDS011;42627;42.646;23.642;2023-06-10T09:33:54;6.63;;;3.05;;
56752;SDS011;42627;42.646;23.642;2023-06-10T09:35:55;4.15;;;2.10;;
56752;SDS011;42627;42.646;23.642;2023-06-10T09:38:01;3.88;;;2.08;;
56752;SDS011;42627;42.646;23.642;2023-06-10T09:40:05;5.28;;;2.00;;
56752;SDS011;42627;42.646;23.642;2023-06-10T09:42:17;7.03;;;2.10;;
56752;SDS011;42627;42.646;23.642;2023-06-10T09:44:19;4.90;;;2.38;;
56752;SDS011;42627;42.646;23.642;2023-06-10T09:46:20;7.85;;;3.40;;
56752;SDS011;42627;42.646;23.642;2023-06-10T09:48:21;5.05;;;2.55;;
56752;SDS011;42627;42.646;23.642;2023-06-10T09:50:23;59.10;;;8.10;;
56752;SDS011;42627;42.646;23.642;2023-06-10T09:52:25;29.52;;;6.30;;
56752;SDS011;42627;42.646;23.642;2023-06-10T09:54:27;8.55;;;3.15;;
56752;SDS011;42627;42.646;23.642;2023-06-10T09:56:33;5.03;;;2.42;;
56752;SDS011;42627;42.646;23.642;2023-06-10T09:58:35;5.35;;;2.20;;
56752;SDS011;42627;42.646;23.642;2023-06-10T10:00:36;5.60;;;2.15;;
56752;SDS011;42627;42.646;23.642;2023-06-10T10:02:47;4.68;;;1.73;;
56752;SDS011;42627;42.646;23.642;2023-06-10T10:04:48;3.85;;;1.60;;
56752;SDS011;42627;42.646;23.642;2023-06-10T10:06:50;3.70;;;2.00;;
56752;SDS011;42627;42.646;23.642;2023-06-10T10:08:51;51.72;;;10.95;;
56752;SDS011;42627;42.646;23.642;2023-06-10T10:10:52;12.50;;;3.10;;
56752;SDS011;42627;42.646;23.642;2023-06-10T10:12:54;3.17;;;1.80;;
56752;SDS011;42627;42.646;23.642;2023-06-10T10:14:58;31.35;;;4.20;;
56752;SDS011;42627;42.646;23.642;2023-06-10T10:16:59;5.68;;;2.17;;
56752;SDS011;42627;42.646;23.642;2023-06-10T10:19:04;9.15;;;3.38;;
56752;SDS011;42627;42.646;23.642;2023-06-10T10:21:09;36.28;;;6.25;;
56752;SDS011;42627;42.646;23.642;2023-06-10T10:23:10;10.63;;;2.60;;
56752;SDS011;42627;42.646;23.642;2023-06-10T10:25:21;3.72;;;1.90;;
56752;SDS011;42627;42.646;23.642;2023-06-10T10:27:27;6.30;;;2.83;;
56752;SDS011;42627;42.646;23.642;2023-06-10T10:29:30;15.07;;;4.15;;
56752;SDS011;42627;42.646;23.642;2023-06-10T10:31:32;3.83;;;1.80;;
56752;SDS011;42627;42.646;23.642;2023-06-10T10:33:40;6.22;;;2.33;;
56752;SDS011;42627;42.646;23.642;2023-06-10T10:35:43;6.35;;;2.05;;
56752;SDS011;42627;42.646;23.642;2023-06-10T10:37:45;4.70;;;1.88;;
56752;SDS011;42627;42.646;23.642;2023-06-10T10:39:47;5.68;;;2.17;;
56752;SDS011;42627;42.646;23.642;2023-06-10T10:41:48;3.42;;;1.90;;
56752;SDS011;42627;42.646;23.642;2023-06-10T10:43:50;3.03;;;1.65;;
56752;SDS011;42627;42.646;23.642;2023-06-10T10:45:58;3.92;;;1.92;;
56752;SDS011;42627;42.646;23.642;2023-06-10T10:47:59;4.80;;;1.98;;
56752;SDS011;42627;42.646;23.642;2023-06-10T10:50:28;5.03;;;2.35;;
56752;SDS011;42627;42.646;23.642;2023-06-10T10:52:28;3.50;;;1.92;;
56752;SDS011;42627;42.646;23.642;2023-06-10T10:54:46;3.53;;;1.75;;
56752;SDS011;42627;42.646;23.642;2023-06-10T10:59:07;3.55;;;1.90;;
56752;SDS011;42627;42.646;23.642;2023-06-10T11:01:12;3.95;;;1.88;;
56752;SDS011;42627;42.646;23.642;2023-06-10T11:03:15;3.95;;;2.05;;
56752;SDS011;42627;42.646;23.642;2023-06-10T11:05:20;3.33;;;1.73;;
56752;SDS011;42627;42.646;23.642;2023-06-10T11:07:32;3.88;;;1.73;;
56752;SDS011;42627;42.646;23.642;2023-06-10T11:09:34;4.18;;;2.00;;
56752;SDS011;42627;42.646;23.642;2023-06-10T11:11:35;3.20;;;1.75;;
56752;SDS011;42627;42.646;23.642;2023-06-10T11:16:04;3.42;;;1.58;;
56752;SDS011;42627;42.646;23.642;2023-06-10T11:18:08;3.10;;;1.60;;
56752;SDS011;42627;42.646;23.642;2023-06-10T11:20:10;5.70;;;3.05;;
56752;SDS011;42627;42.646;23.642;2023-06-10T11:22:15;18.40;;;5.75;;
56752;SDS011;42627;42.646;23.642;2023-06-10T11:24:16;19.13;;;4.32;;
56752;SDS011;42627;42.646;23.642;2023-06-10T11:26:36;4.05;;;2.00;;
56752;SDS011;42627;42.646;23.642;2023-06-10T11:30:51;87.43;;;13.27;;
56752;SDS011;42627;42.646;23.642;2023-06-10T11:32:58;13.95;;;2.78;;
56752;SDS011;42627;42.646;23.642;2023-06-10T11:34:59;3.58;;;1.85;;
56752;SDS011;42627;42.646;23.642;2023-06-10T11:37:01;3.75;;;2.05;;
56752;SDS011;42627;42.646;23.642;2023-06-10T11:39:04;5.35;;;2.40;;
56752;SDS011;42627;42.646;23.642;2023-06-10T11:43:31;5.82;;;2.50;;
56752;SDS011;42627;42.646;23.642;2023-06-10T11:45:32;4.03;;;2.30;;
56752;SDS011;42627;42.646;23.642;2023-06-10T11:47:33;6.05;;;2.20;;
56752;SDS011;42627;42.646;23.642;2023-06-10T11:49:34;6.85;;;2.13;;
56752;SDS011;42627;42.646;23.642;2023-06-10T11:51:50;3.97;;;2.00;;
56752;SDS011;42627;42.646;23.642;2023-06-10T11:53:51;5.03;;;1.73;;
56752;SDS011;42627;42.646;23.642;2023-06-10T11:55:53;19.63;;;3.50;;
56752;SDS011;42627;42.646;23.642;2023-06-10T11:57:54;5.53;;;2.22;;
56752;SDS011;42627;42.646;23.642;2023-06-10T12:00:03;4.47;;;1.88;;
56752;SDS011;42627;42.646;23.642;2023-06-10T12:02:04;8.02;;;3.25;;
56752;SDS011;42627;42.646;23.642;2023-06-10T12:04:07;5.13;;;2.30;;
56752;SDS011;42627;42.646;23.642;2023-06-10T12:13:48;3.45;;;1.77;;
56752;SDS011;42627;42.646;23.642;2023-06-10T12:15:49;3.83;;;1.90;;
56752;SDS011;42627;42.646;23.642;2023-06-10T12:17:50;3.95;;;2.10;;
56752;SDS011;42627;42.646;23.642;2023-06-10T12:19:54;4.15;;;2.47;;
56752;SDS011;42627;42.646;23.642;2023-06-10T12:21:56;4.40;;;2.22;;
56752;SDS011;42627;42.646;23.642;2023-06-10T12:24:03;6.63;;;2.00;;